KMIW/MIW METAR and TAF weather

Enter ICAO airport designator
Station Type Date Time Source
KMIW METAR 2022/05/26 03:53 UTC NOAA

KMIW 260353Z AUTO 36012KT 10SM OVC006 13/12 A2970 RMK AO2 PK WND 01026/0331 SLP057 T01280117


Station Type Date Time Source
KMIW Decoded METAR 2022/05/26 03:53 UTC NOAA

MARSHALLTOWN MUNICIPAL AIRPORT , IA, United States (KMIW) 42-07N 92-55W 296M
May 25, 2022 - 11:53 PM EDT / 2022.05.26 0353 UTC
Wind: from the N (360 degrees) at 14 MPH (12 KT):0
Visibility: 10 mile(s):0
Sky conditions: overcast
Temperature: 55.0 F (12.8 C)
Dew Point: 53.1 F (11.7 C)
Relative Humidity: 93%
Pressure (altimeter): 29.7 in. Hg (1005 hPa)
ob: KMIW 260353Z AUTO 36012KT 10SM OVC006 13/12 A2970 RMK AO2 PK WND 01026/0331 SLP057 T01280117
cycle: 4

Station Type Date Time Source
KMIW TAF UTC NOAA

Error!

Example: see airport list